createdAt,value
2023-05-23T00:00:10.313Z,44.63
2023-05-23T00:02:41.815Z,46.50
2023-05-23T00:05:10.335Z,46.17
2023-05-23T00:07:38.423Z,48.10
2023-05-23T00:10:07.142Z,46.23
2023-05-23T00:12:37.726Z,45.60
2023-05-23T00:15:08.783Z,45.57
2023-05-23T00:17:38.275Z,45.90
2023-05-23T00:20:09.671Z,47.70
2023-05-23T00:22:42.271Z,48.50
2023-05-23T00:25:11.109Z,46.03
2023-05-23T00:27:40.595Z,47.30
2023-05-23T00:30:09.551Z,44.90
2023-05-23T00:32:38.101Z,47.13
2023-05-23T00:35:07.045Z,48.27
2023-05-23T00:37:35.835Z,45.77
2023-05-23T00:40:03.916Z,45.50
2023-05-23T00:42:33.082Z,46.70
2023-05-23T00:45:02.500Z,47.60
2023-05-23T00:47:30.759Z,45.97
2023-05-23T00:49:58.900Z,46.97
2023-05-23T00:52:27.103Z,45.00
2023-05-23T00:54:55.213Z,47.47
2023-05-23T00:57:23.709Z,48.97
2023-05-23T00:59:51.786Z,45.87
2023-05-23T01:02:22.289Z,46.27
2023-05-23T01:04:54.306Z,46.27
2023-05-23T01:07:22.421Z,46.83
2023-05-23T01:09:51.089Z,47.37
2023-05-23T01:12:21.989Z,45.47
2023-05-23T01:14:53.401Z,47.33
2023-05-23T01:17:37.137Z,47.20
2023-05-23T01:20:10.371Z,45.73
2023-05-23T01:22:52.216Z,44.67
2023-05-23T01:25:29.970Z,45.27
2023-05-23T01:28:02.429Z,48.50
2023-05-23T01:30:33.855Z,48.20
2023-05-23T01:33:02.586Z,46.33
2023-05-23T01:35:31.500Z,46.30
2023-05-23T01:37:59.592Z,45.10
2023-05-23T01:40:27.958Z,48.47
2023-05-23T01:42:57.644Z,46.20
2023-05-23T01:45:28.400Z,47.93
2023-05-23T01:47:57.147Z,45.60
2023-05-23T01:50:27.133Z,46.37
2023-05-23T01:52:56.142Z,45.70
2023-05-23T01:55:24.814Z,47.33
2023-05-23T01:57:53.229Z,46.10
2023-05-23T02:00:21.707Z,47.67
2023-05-23T02:02:51.272Z,47.40
2023-05-23T02:05:19.481Z,46.53
2023-05-23T02:07:47.590Z,46.07
2023-05-23T02:10:18.648Z,46.40
2023-05-23T02:12:46.775Z,45.97
2023-05-23T02:15:14.845Z,45.67
2023-05-23T02:17:43.106Z,46.03
2023-05-23T02:20:14.486Z,47.30
2023-05-23T02:22:42.572Z,49.63
2023-05-23T02:25:10.872Z,47.60
2023-05-23T02:27:40.746Z,46.87
2023-05-23T02:30:09.931Z,46.67
2023-05-23T02:32:38.385Z,48.00
2023-05-23T02:35:07.327Z,50.17
2023-05-23T02:37:36.756Z,45.10
2023-05-23T02:40:07.632Z,48.37
2023-05-23T02:42:35.779Z,46.70
2023-05-23T02:45:03.831Z,45.47
2023-05-23T02:47:32.227Z,45.00
2023-05-23T02:50:00.651Z,46.97
2023-05-23T02:52:29.486Z,46.20
2023-05-23T02:54:58.855Z,47.00
2023-05-23T02:57:27.625Z,47.17
2023-05-23T02:59:55.841Z,45.80
2023-05-23T03:02:23.963Z,45.93
2023-05-23T03:04:52.148Z,46.70
2023-05-23T03:07:28.155Z,45.50
2023-05-23T03:09:58.633Z,45.77
2023-05-23T03:12:26.828Z,47.50
2023-05-23T03:14:55.040Z,47.53
2023-05-23T03:17:23.271Z,45.60
2023-05-23T03:19:51.447Z,48.27
2023-05-23T03:22:20.553Z,45.90
2023-05-23T03:24:48.819Z,48.77
2023-05-23T03:27:18.351Z,46.37
2023-05-23T03:29:46.613Z,46.67
2023-05-23T03:32:14.953Z,47.60
2023-05-23T03:34:43.191Z,46.10
2023-05-23T03:37:12.862Z,45.40
2023-05-23T03:39:41.128Z,48.30
2023-05-23T03:42:09.584Z,47.00
2023-05-23T03:44:39.579Z,51.47
2023-05-23T03:47:08.867Z,47.63
2023-05-23T03:49:39.748Z,48.47
2023-05-23T03:52:08.413Z,46.20
2023-05-23T03:54:36.742Z,48.67
2023-05-23T03:57:05.404Z,48.00
2023-05-23T03:59:35.206Z,47.13
2023-05-23T04:02:06.486Z,49.47
2023-05-23T04:04:35.351Z,46.50
2023-05-23T04:07:05.800Z,47.37
2023-05-23T04:09:34.249Z,46.93
2023-05-23T04:12:03.176Z,46.67
2023-05-23T04:14:33.799Z,46.40
2023-05-23T04:17:02.769Z,47.80
2023-05-23T04:19:32.681Z,51.40
2023-05-23T04:22:02.055Z,47.80
2023-05-23T04:24:30.488Z,47.77
2023-05-23T04:26:59.416Z,48.47
2023-05-23T04:29:27.984Z,46.83
2023-05-23T04:31:56.610Z,49.67
2023-05-23T04:34:24.752Z,48.10
2023-05-23T04:36:55.944Z,46.47
2023-05-23T04:39:24.078Z,49.23
2023-05-23T04:42:13.885Z,45.97
2023-05-23T04:45:36.637Z,46.53
2023-05-23T04:48:13.160Z,46.80
2023-05-23T04:50:47.514Z,48.20
2023-05-23T04:53:17.020Z,45.77
2023-05-23T04:55:46.162Z,48.50
2023-05-23T04:58:17.911Z,52.20
2023-05-23T05:00:46.297Z,45.80
2023-05-23T05:03:16.637Z,47.77
2023-05-23T05:05:46.954Z,47.90
2023-05-23T05:08:19.897Z,48.77
2023-05-23T05:10:48.353Z,48.60
2023-05-23T05:13:17.477Z,49.10
2023-05-23T05:15:49.896Z,47.17
2023-05-23T05:18:18.715Z,47.17
2023-05-23T05:20:47.310Z,48.20
2023-05-23T05:23:17.997Z,45.90
2023-05-23T05:25:46.235Z,46.17
2023-05-23T05:28:14.642Z,47.17
2023-05-23T05:30:46.495Z,48.00
2023-05-23T05:33:15.594Z,48.10
2023-05-23T05:35:44.249Z,48.10
2023-05-23T05:38:12.489Z,45.67
2023-05-23T05:40:42.631Z,51.33
2023-05-23T05:43:11.495Z,49.60
2023-05-23T05:45:40.057Z,49.17
2023-05-23T05:48:08.385Z,49.10
2023-05-23T05:50:37.050Z,48.23
2023-05-23T05:53:05.166Z,45.40
2023-05-23T05:55:33.269Z,48.33
2023-05-23T05:58:02.767Z,47.40
2023-05-23T06:00:42.470Z,49.90
2023-05-23T06:03:10.942Z,45.27
2023-05-23T06:05:46.238Z,48.63
2023-05-23T06:08:14.376Z,45.87
2023-05-23T06:10:42.766Z,46.50
2023-05-23T06:13:12.601Z,45.57
2023-05-23T06:15:43.310Z,49.57
2023-05-23T06:18:11.823Z,46.30
2023-05-23T06:20:40.543Z,44.67
2023-05-23T06:23:15.142Z,46.70
2023-05-23T06:25:43.256Z,45.03
2023-05-23T06:28:12.721Z,47.30
2023-05-23T06:30:41.259Z,45.60
2023-05-23T06:33:09.828Z,47.43
2023-05-23T06:35:37.930Z,46.27
2023-05-23T06:38:05.973Z,44.23
2023-05-23T06:40:34.595Z,46.17
2023-05-23T06:43:02.652Z,45.37
2023-05-23T06:45:55.226Z,46.33
2023-05-23T06:48:23.390Z,44.77
2023-05-23T06:50:52.378Z,44.93
2023-05-23T06:53:21.261Z,44.03
2023-05-23T06:55:50.574Z,47.93
2023-05-23T06:58:25.054Z,42.70
2023-05-23T07:00:54.813Z,46.07
2023-05-23T07:03:33.293Z,45.80
2023-05-23T07:06:05.879Z,37.50
2023-05-23T07:08:34.689Z,29.13
2023-05-23T07:11:03.160Z,27.10
2023-05-23T07:13:51.528Z,28.40
2023-05-23T07:16:28.760Z,29.17
2023-05-23T07:19:03.073Z,31.33
2023-05-23T07:21:32.044Z,25.43
2023-05-23T07:24:00.192Z,25.60
2023-05-23T07:26:29.433Z,27.20
2023-05-23T07:28:58.062Z,28.77
2023-05-23T07:31:26.162Z,23.93
2023-05-23T07:33:59.555Z,24.67
2023-05-23T07:36:35.741Z,25.70
2023-05-23T07:39:08.231Z,24.70
2023-05-23T07:41:36.507Z,25.30
2023-05-23T07:44:04.693Z,24.57
2023-05-23T07:46:33.238Z,25.53
2023-05-23T07:49:02.689Z,26.37
2023-05-23T07:51:30.970Z,24.13
2023-05-23T07:53:59.253Z,25.43
2023-05-23T07:56:27.652Z,26.23
2023-05-23T07:58:56.440Z,23.40
2023-05-23T08:01:25.597Z,25.80
2023-05-23T08:04:01.966Z,24.67
2023-05-23T08:06:39.890Z,26.00
2023-05-23T08:09:30.018Z,28.13
2023-05-23T08:12:17.796Z,25.33
2023-05-23T08:14:51.506Z,24.83
2023-05-23T08:17:43.574Z,25.30
2023-05-23T08:20:14.756Z,24.40
2023-05-23T08:22:42.872Z,25.80
2023-05-23T08:25:11.519Z,26.53
2023-05-23T08:27:41.515Z,24.67
2023-05-23T08:30:28.330Z,25.63
2023-05-23T08:32:58.008Z,25.20
2023-05-23T08:35:29.296Z,24.20
2023-05-23T08:37:58.274Z,27.40
2023-05-23T08:40:29.259Z,24.80
2023-05-23T08:43:04.891Z,25.37
2023-05-23T08:45:34.910Z,26.30
2023-05-23T08:48:04.858Z,25.77
2023-05-23T08:50:38.893Z,24.50
2023-05-23T08:53:08.656Z,23.70
2023-05-23T08:55:38.991Z,26.13
2023-05-23T08:58:07.593Z,24.73
2023-05-23T09:00:47.556Z,24.37
2023-05-23T09:03:15.659Z,25.57
2023-05-23T09:05:58.852Z,25.03
2023-05-23T09:08:27.186Z,25.43
2023-05-23T09:10:59.299Z,25.20
2023-05-23T09:13:28.579Z,23.90
2023-05-23T09:15:59.944Z,23.90
2023-05-23T09:18:34.793Z,24.50
2023-05-23T09:21:05.648Z,23.90
2023-05-23T09:23:36.155Z,24.40
2023-05-23T09:26:05.153Z,23.90
2023-05-23T09:28:34.069Z,23.87
2023-05-23T09:31:02.489Z,24.60
2023-05-23T09:33:37.669Z,25.70
2023-05-23T09:36:08.522Z,26.53
2023-05-23T09:38:39.531Z,24.53
2023-05-23T09:41:08.272Z,24.00
2023-05-23T09:43:36.412Z,25.40
2023-05-23T09:46:09.011Z,24.33
2023-05-23T09:48:37.173Z,24.50
2023-05-23T09:51:10.687Z,23.90
2023-05-23T09:53:38.893Z,23.93
2023-05-23T09:56:07.850Z,23.50
2023-05-23T09:58:36.653Z,24.10
2023-05-23T10:01:04.950Z,25.00
2023-05-23T10:03:35.723Z,24.90
2023-05-23T10:06:09.630Z,23.50
2023-05-23T10:08:40.252Z,25.73
2023-05-23T10:11:47.592Z,22.83
2023-05-23T10:14:16.721Z,24.00
2023-05-23T10:16:51.637Z,23.40
2023-05-23T10:19:24.612Z,24.40
2023-05-23T10:21:59.544Z,23.87
2023-05-23T10:24:27.904Z,23.50
2023-05-23T10:26:56.358Z,22.93
2023-05-23T10:29:24.663Z,23.67
2023-05-23T10:31:53.676Z,24.03
2023-05-23T10:34:27.355Z,23.00
2023-05-23T10:37:01.986Z,23.90
2023-05-23T10:39:37.632Z,23.83
2023-05-23T10:42:11.649Z,24.23
2023-05-23T10:44:39.761Z,23.40
2023-05-23T10:47:08.130Z,25.03
2023-05-23T10:49:40.853Z,28.80
2023-05-23T10:52:11.906Z,22.27
2023-05-23T10:54:44.667Z,24.37
2023-05-23T10:57:14.330Z,23.07
2023-05-23T10:59:42.614Z,24.57
2023-05-23T11:02:15.686Z,25.67
2023-05-23T11:04:44.098Z,24.73
2023-05-23T11:07:31.895Z,23.00
2023-05-23T11:10:10.293Z,24.10
2023-05-23T11:12:39.283Z,24.53
2023-05-23T11:15:22.660Z,22.13
2023-05-23T11:17:53.092Z,23.70
2023-05-23T11:20:23.568Z,27.50
2023-05-23T11:23:00.251Z,24.20
2023-05-23T11:25:42.307Z,24.60
2023-05-23T11:28:10.686Z,26.40
2023-05-23T11:30:39.338Z,24.53
2023-05-23T11:33:09.519Z,30.90
2023-05-23T11:35:37.652Z,22.83
2023-05-23T11:38:07.356Z,23.10
2023-05-23T11:40:36.681Z,23.53
2023-05-23T11:43:06.031Z,23.13
2023-05-23T11:45:35.219Z,23.07
2023-05-23T11:48:10.043Z,22.77
2023-05-23T11:50:46.042Z,24.23
2023-05-23T11:53:17.555Z,24.60
2023-05-23T11:55:53.336Z,23.80
2023-05-23T11:58:23.963Z,23.60
2023-05-23T12:00:55.058Z,22.90
2023-05-23T12:03:23.674Z,22.67
2023-05-23T12:05:52.157Z,23.50
2023-05-23T12:08:21.803Z,25.97
2023-05-23T12:10:51.088Z,23.20
2023-05-23T12:13:19.327Z,23.30
2023-05-23T12:15:47.860Z,22.93
2023-05-23T12:18:17.851Z,22.50
2023-05-23T12:20:45.933Z,21.27
2023-05-23T12:23:21.383Z,22.63
2023-05-23T12:25:51.942Z,26.20
2023-05-23T12:28:20.513Z,22.93
2023-05-23T12:30:48.730Z,22.60
2023-05-23T12:33:16.898Z,23.73
2023-05-23T12:35:45.729Z,22.47
2023-05-23T12:38:17.307Z,22.53
2023-05-23T12:40:46.745Z,23.70
2023-05-23T12:43:16.788Z,22.90
2023-05-23T12:45:44.825Z,22.63
2023-05-23T12:48:12.912Z,22.83
2023-05-23T12:50:41.326Z,20.90
2023-05-23T12:53:09.646Z,23.27
2023-05-23T12:55:37.894Z,23.23
2023-05-23T12:58:07.368Z,22.97
2023-05-23T13:00:35.443Z,22.67
2023-05-23T13:03:03.533Z,22.43
2023-05-23T13:05:31.621Z,21.90
2023-05-23T13:08:00.262Z,25.57
2023-05-23T13:10:30.924Z,20.73
2023-05-23T13:12:59.985Z,20.77
2023-05-23T13:15:29.609Z,22.63
2023-05-23T13:17:58.066Z,22.37
2023-05-23T13:20:30.100Z,22.40
2023-05-23T13:22:59.532Z,23.37
2023-05-23T13:25:28.505Z,22.30
2023-05-23T13:27:57.370Z,21.73
2023-05-23T13:30:25.775Z,23.10
2023-05-23T13:32:55.577Z,22.20
2023-05-23T13:35:23.885Z,22.07
2023-05-23T13:37:53.806Z,23.43
2023-05-23T13:40:22.759Z,22.90
2023-05-23T13:42:52.152Z,23.03
2023-05-23T13:45:22.468Z,22.67
2023-05-23T13:47:50.838Z,24.00
2023-05-23T13:50:20.702Z,24.33
2023-05-23T13:52:49.610Z,22.03
2023-05-23T13:55:18.671Z,22.90
2023-05-23T13:57:47.204Z,22.57
2023-05-23T14:00:16.147Z,20.70
2023-05-23T14:02:44.483Z,22.50
2023-05-23T14:05:12.688Z,22.00
2023-05-23T14:07:47.090Z,23.00
2023-05-23T14:10:15.463Z,21.53
2023-05-23T14:12:43.652Z,23.53
2023-05-23T14:15:13.025Z,22.07
2023-05-23T14:17:41.284Z,21.03
2023-05-23T14:20:10.019Z,21.53
2023-05-23T14:22:38.199Z,22.00
2023-05-23T14:25:08.526Z,21.03
2023-05-23T14:27:36.875Z,21.65
2023-05-23T14:30:06.003Z,21.47
2023-05-23T14:32:38.854Z,20.97
2023-05-23T14:35:07.886Z,21.47
2023-05-23T14:37:36.302Z,20.90
2023-05-23T14:40:04.692Z,21.63
2023-05-23T14:42:34.324Z,21.20
2023-05-23T14:45:02.890Z,21.10
2023-05-23T14:47:32.106Z,19.43
2023-05-23T14:50:00.374Z,19.70
2023-05-23T14:52:28.652Z,20.20
2023-05-23T14:54:56.834Z,20.67
2023-05-23T14:57:25.331Z,19.23
2023-05-23T14:59:54.727Z,22.53
2023-05-23T15:02:22.920Z,22.63
2023-05-23T15:04:51.151Z,20.40
2023-05-23T15:07:19.453Z,19.53
2023-05-23T15:09:48.388Z,20.00
2023-05-23T15:12:16.672Z,20.73
2023-05-23T15:14:45.029Z,19.33
2023-05-23T15:17:19.898Z,19.60
2023-05-23T15:19:48.145Z,19.87
2023-05-23T15:22:35.140Z,20.20
2023-05-23T15:25:04.973Z,20.40
2023-05-23T15:27:33.144Z,21.97
2023-05-23T15:30:01.447Z,19.67
2023-05-23T15:32:31.303Z,19.37
2023-05-23T15:34:59.616Z,20.50
2023-05-23T15:37:27.810Z,19.53
2023-05-23T15:39:56.093Z,19.60
2023-05-23T15:42:24.269Z,19.83
2023-05-23T15:44:52.479Z,19.60
2023-05-23T15:47:21.369Z,19.57
2023-05-23T15:49:50.879Z,20.00
2023-05-23T15:52:19.002Z,20.73
2023-05-23T15:54:47.135Z,20.60
2023-05-23T15:57:15.300Z,20.20
2023-05-23T15:59:43.809Z,19.63
2023-05-23T16:02:11.996Z,18.83
2023-05-23T16:04:40.264Z,20.70
2023-05-23T16:07:09.798Z,20.70
2023-05-23T16:09:37.995Z,21.10
2023-05-23T16:12:06.836Z,20.70
2023-05-23T16:14:34.976Z,20.00
2023-05-23T16:17:06.043Z,20.13
2023-05-23T16:19:37.158Z,19.80
2023-05-23T16:22:06.052Z,20.30
2023-05-23T16:24:35.611Z,21.23
2023-05-23T16:27:03.982Z,20.70
2023-05-23T16:29:32.227Z,20.43
2023-05-23T16:32:00.409Z,22.53
2023-05-23T16:34:28.708Z,21.20
2023-05-23T16:36:56.829Z,21.70
2023-05-23T16:39:25.068Z,20.23
2023-05-23T16:41:54.633Z,20.20
2023-05-23T16:44:22.807Z,20.93
2023-05-23T16:46:51.603Z,20.73
2023-05-23T16:49:19.852Z,20.53
2023-05-23T16:51:48.868Z,21.60
2023-05-23T16:54:17.246Z,21.37
2023-05-23T16:56:45.535Z,21.00
2023-05-23T16:59:16.198Z,22.13
2023-05-23T17:01:44.427Z,22.57
2023-05-23T17:04:12.731Z,21.50
2023-05-23T17:06:41.107Z,20.90
2023-05-23T17:09:09.372Z,20.40
2023-05-23T17:11:37.638Z,20.70
2023-05-23T17:14:06.018Z,20.77
2023-05-23T17:16:35.720Z,21.23
2023-05-23T17:19:04.367Z,21.90
2023-05-23T17:21:32.923Z,21.20
2023-05-23T17:24:01.195Z,21.50
2023-05-23T17:26:29.453Z,20.50
2023-05-23T17:28:57.629Z,20.43
2023-05-23T17:31:26.580Z,22.10
2023-05-23T17:33:57.168Z,21.23
2023-05-23T17:36:25.550Z,20.73
2023-05-23T17:38:54.307Z,21.00
2023-05-23T17:41:23.140Z,21.53
2023-05-23T17:43:51.500Z,21.40
2023-05-23T17:46:19.765Z,22.20
2023-05-23T17:48:48.390Z,21.90
2023-05-23T17:51:18.024Z,21.33
2023-05-23T17:53:46.298Z,21.60
2023-05-23T17:56:14.513Z,21.70
2023-05-23T17:58:44.307Z,22.40
2023-05-23T18:01:13.631Z,21.80
2023-05-23T18:03:42.094Z,22.03
2023-05-23T18:06:10.603Z,21.73
2023-05-23T18:08:41.474Z,23.63
2023-05-23T18:11:11.066Z,21.30
2023-05-23T18:13:39.489Z,38.53
2023-05-23T18:16:08.015Z,22.70
2023-05-23T18:18:36.218Z,22.03
2023-05-23T18:21:04.632Z,22.53
2023-05-23T18:23:33.845Z,22.43
2023-05-23T18:26:03.657Z,22.10
2023-05-23T18:28:31.877Z,23.00
2023-05-23T18:31:00.132Z,22.90
2023-05-23T18:33:28.745Z,23.30
2023-05-23T18:35:57.027Z,23.13
2023-05-23T18:38:25.607Z,21.87
2023-05-23T18:40:53.830Z,22.80
2023-05-23T18:43:23.397Z,22.57
2023-05-23T18:45:51.728Z,23.83
2023-05-23T18:48:19.990Z,23.60
2023-05-23T18:50:48.360Z,22.20
2023-05-23T18:53:16.646Z,22.80
2023-05-23T18:55:44.983Z,23.73
2023-05-23T18:58:14.051Z,24.53
2023-05-23T19:00:45.305Z,24.00
2023-05-23T19:03:14.618Z,23.93
2023-05-23T19:05:42.979Z,25.10
2023-05-23T19:08:11.208Z,27.40
2023-05-23T19:10:39.494Z,23.93
2023-05-23T19:13:07.750Z,23.60
2023-05-23T19:15:36.094Z,25.10
2023-05-23T19:18:06.124Z,24.10
2023-05-23T19:20:34.341Z,25.13
2023-05-23T19:23:02.571Z,26.60
2023-05-23T19:25:31.193Z,24.70
2023-05-23T19:27:59.430Z,26.80
2023-05-23T19:30:27.668Z,25.30
2023-05-23T19:32:56.207Z,26.10
2023-05-23T19:35:26.020Z,25.17
2023-05-23T19:37:54.389Z,26.23
2023-05-23T19:40:22.640Z,24.60
2023-05-23T19:42:51.170Z,28.13
2023-05-23T19:45:19.665Z,25.70
2023-05-23T19:47:47.868Z,25.23
2023-05-23T19:50:16.143Z,26.80
2023-05-23T19:52:45.769Z,26.13
2023-05-23T19:55:14.457Z,26.40
2023-05-23T19:57:42.609Z,26.60
2023-05-23T20:00:14.767Z,27.03
2023-05-23T20:02:44.552Z,29.67
2023-05-23T20:05:12.828Z,31.13
2023-05-23T20:07:41.934Z,29.40
2023-05-23T20:10:12.387Z,29.80
2023-05-23T20:12:40.588Z,29.43
2023-05-23T20:15:09.781Z,31.33
2023-05-23T20:17:37.974Z,30.60
2023-05-23T20:20:07.407Z,29.57
2023-05-23T20:22:35.798Z,28.87
2023-05-23T20:25:05.728Z,29.30
2023-05-23T20:27:35.534Z,27.73
2023-05-23T20:30:04.087Z,28.50
2023-05-23T20:32:32.533Z,31.40
2023-05-23T20:35:00.986Z,32.87
2023-05-23T20:37:29.293Z,30.90
2023-05-23T20:39:58.052Z,32.17
2023-05-23T20:42:27.066Z,32.63
2023-05-23T20:44:58.003Z,30.20
2023-05-23T20:47:26.571Z,34.10
2023-05-23T20:49:56.071Z,33.50
2023-05-23T20:52:24.576Z,33.57
2023-05-23T20:54:54.517Z,33.90
2023-05-23T20:57:23.072Z,32.30
2023-05-23T20:59:51.308Z,32.83
2023-05-23T21:02:20.903Z,33.77
2023-05-23T21:04:49.180Z,34.93
2023-05-23T21:07:17.400Z,34.07
2023-05-23T21:09:46.029Z,32.60
2023-05-23T21:12:14.249Z,34.53
2023-05-23T21:14:42.341Z,34.30
2023-05-23T21:17:10.470Z,31.17
2023-05-23T21:19:40.035Z,35.53
2023-05-23T21:22:08.274Z,33.40
2023-05-23T21:24:36.425Z,33.70
2023-05-23T21:27:05.360Z,33.20
2023-05-23T21:29:33.425Z,33.53
2023-05-23T21:32:01.660Z,33.00
2023-05-23T21:34:29.925Z,34.70
2023-05-23T21:36:59.403Z,34.90
2023-05-23T21:39:36.091Z,32.10
2023-05-23T21:42:11.395Z,35.53
2023-05-23T21:44:40.892Z,33.53
2023-05-23T21:47:09.124Z,34.10
2023-05-23T21:49:37.981Z,34.93
2023-05-23T21:52:07.494Z,35.97
2023-05-23T21:54:35.767Z,34.60
2023-05-23T21:57:03.916Z,35.83
2023-05-23T21:59:32.080Z,35.20
2023-05-23T22:02:00.970Z,36.47
2023-05-23T22:04:29.102Z,36.40
2023-05-23T22:06:57.134Z,33.43
2023-05-23T22:09:26.656Z,35.40
2023-05-23T22:11:55.921Z,34.53
2023-05-23T22:14:23.999Z,35.43
2023-05-23T22:16:52.284Z,37.40
2023-05-23T22:19:21.134Z,34.70
2023-05-23T22:21:49.264Z,36.53
2023-05-23T22:24:17.411Z,34.50
2023-05-23T22:26:46.857Z,35.53
2023-05-23T22:29:14.906Z,37.83
2023-05-23T22:31:43.295Z,34.93
2023-05-23T22:34:11.568Z,34.83
2023-05-23T22:36:39.622Z,36.70
2023-05-23T22:39:08.058Z,35.97
2023-05-23T22:41:36.653Z,37.73
2023-05-23T22:44:06.216Z,36.53
2023-05-23T22:46:34.329Z,37.70
2023-05-23T22:49:03.694Z,33.83
2023-05-23T22:51:34.180Z,35.40
2023-05-23T22:54:02.481Z,35.20
2023-05-23T22:56:30.522Z,36.03
2023-05-23T22:58:58.593Z,35.03
2023-05-23T23:01:28.081Z,38.67
2023-05-23T23:03:56.178Z,38.90
2023-05-23T23:06:24.206Z,36.50
2023-05-23T23:08:52.838Z,37.60
2023-05-23T23:11:21.001Z,36.40
2023-05-23T23:13:49.024Z,37.53
2023-05-23T23:16:19.335Z,36.90
2023-05-23T23:18:50.012Z,38.57
2023-05-23T23:21:18.093Z,35.53
2023-05-23T23:23:46.243Z,37.83
2023-05-23T23:26:14.319Z,38.30
2023-05-23T23:28:42.367Z,37.13
2023-05-23T23:31:10.545Z,37.90
2023-05-23T23:33:38.805Z,38.17
2023-05-23T23:36:08.790Z,37.33
2023-05-23T23:38:38.078Z,37.60
2023-05-23T23:41:06.276Z,38.70
2023-05-23T23:43:34.346Z,39.73
2023-05-23T23:46:02.437Z,39.20
2023-05-23T23:48:30.569Z,39.70
2023-05-23T23:50:58.628Z,40.27
2023-05-23T23:53:28.048Z,38.03
2023-05-23T23:55:56.094Z,39.50
2023-05-23T23:58:24.121Z,39.30
